Time;durP1;ratioP1;P1;durP2;ratioP2;P2;SDS_P1;SDS_P2;PMS_P1;PMS_P2;Temp;Humidity;BMP_temperature;BMP_pressure;BME280_temperature;BME280_humidity;BME280_pressure;Samples;Min_cycle;Max_cycle;Signal;HPM_P1;HPM_P2
2022/10/25 00:01:44;;;;;;;;;;;9.30;99.90;;;;;;5035332;28;19913;-70
2022/10/25 00:04:10;;;;;;;;;;;9.30;99.90;;;;;;5053727;28;20368;-71
2022/10/25 00:06:35;;;;;;;;;;;9.30;99.90;;;;;;5053414;28;19919;-70
2022/10/25 00:09:01;;;;;;;;;;;9.30;99.90;;;;;;5035530;28;19913;-70
2022/10/25 00:11:28;;;;;;;;;;;9.20;99.90;;;;;;5053268;28;20261;-71
2022/10/25 00:13:54;;;;;;;;;;;9.20;99.90;;;;;;5053353;28;19917;-70
2022/10/25 00:16:21;;;;;;;;;;;9.20;99.90;;;;;;5053173;28;19920;-70
2022/10/25 00:18:47;;;;;;;;;;;9.20;99.90;;;;;;5053303;28;19935;-70
2022/10/25 00:21:12;;;;;;;;;;;9.30;99.90;;;;;;5053756;28;20365;-70
2022/10/25 00:23:38;;;;;;;;;;;9.20;99.90;;;;;;5053113;28;19963;-70
2022/10/25 00:26:04;;;;;;;;;;;9.20;99.90;;;;;;5053509;28;19920;-70
2022/10/25 00:28:30;;;;;;;;;;;9.20;99.90;;;;;;5053240;28;20356;-70
2022/10/25 00:31:00;;;;;;;;;;;9.20;99.90;;;;;;5053311;28;19962;-68
2022/10/25 00:33:27;;;;;;;;;;;9.20;99.90;;;;;;5053129;28;19909;-70
2022/10/25 00:35:53;;;;;;;;;;;9.20;99.90;;;;;;5053365;28;19909;-70
2022/10/25 00:38:18;;;;;;;;;;;9.20;99.90;;;;;;5053142;28;19913;-70
2022/10/25 00:40:44;;;;;;;;;;;9.20;99.90;;;;;;5053076;28;19913;-70
2022/10/25 00:43:09;;;;;;;;;;;9.20;99.90;;;;;;5052889;28;19923;-70
2022/10/25 00:45:35;;;;;;;;;;;9.20;99.90;;;;;;5035993;28;19912;-70
2022/10/25 00:48:03;;;;;;;;;;;9.20;99.90;;;;;;5056946;28;20037;-70
2022/10/25 00:50:32;;;;;;;;;;;9.20;99.90;;;;;;5056866;28;19991;-70
2022/10/25 00:53:02;;;;;;;;;;;9.20;99.90;;;;;;5056697;28;20284;-70
2022/10/25 00:55:27;;;;;;;;;;;9.20;99.90;;;;;;5057025;28;19995;-70
2022/10/25 00:57:55;;;;;;;;;;;9.20;99.90;;;;;;5056946;28;19951;-70
2022/10/25 01:00:21;;;;;;;;;;;9.20;99.90;;;;;;5056847;28;20430;-71
2022/10/25 01:02:47;;;;;;;;;;;9.20;99.90;;;;;;5056742;28;19921;-69
2022/10/25 01:05:12;;;;;;;;;;;9.20;99.90;;;;;;5056802;28;19909;-68
2022/10/25 01:07:38;;;;;;;;;;;9.20;99.90;;;;;;5056586;28;20011;-68
2022/10/25 01:10:04;;;;;;;;;;;9.20;99.90;;;;;;5056479;28;19936;-70
2022/10/25 01:12:29;;;;;;;;;;;9.20;99.90;;;;;;5037760;28;19975;-70
2022/10/25 01:14:55;;;;;;;;;;;9.20;99.90;;;;;;5055474;28;19909;-70
2022/10/25 01:17:26;;;;;;;;;;;9.20;99.90;;;;;;5054978;28;19920;-70
2022/10/25 01:20:01;;;;;;;;;;;9.20;99.90;;;;;;5055084;28;19913;-70
2022/10/25 01:22:31;;;;;;;;;;;9.20;99.90;;;;;;5054951;28;19917;-69
2022/10/25 01:25:15;;;;;;;;;;;9.30;99.90;;;;;;5037169;28;19909;-68
2022/10/25 01:27:47;;;;;;;;;;;9.30;99.90;;;;;;5054990;28;19909;-68
2022/10/25 01:30:13;;;;;;;;;;;9.30;99.90;;;;;;5054730;28;19909;-71
2022/10/25 01:32:50;;;;;;;;;;;9.30;99.90;;;;;;5054927;28;19916;-70
2022/10/25 01:35:18;;;;;;;;;;;9.30;99.90;;;;;;5055192;28;20277;-70
2022/10/25 01:37:59;;;;;;;;;;;9.30;99.90;;;;;;5054912;28;19915;-70
2022/10/25 01:40:25;;;;;;;;;;;9.30;99.90;;;;;;5054857;28;19908;-70
2022/10/25 01:42:56;;;;;;;;;;;9.30;99.90;;;;;;5054536;28;19962;-70
2022/10/25 01:45:34;;;;;;;;;;;9.30;99.90;;;;;;5054468;28;19912;-68
2022/10/25 01:48:06;;;;;;;;;;;9.20;99.90;;;;;;5054703;28;19909;-69
2022/10/25 01:50:33;;;;;;;;;;;9.20;99.90;;;;;;5054644;28;19909;-70
2022/10/25 01:52:59;;;;;;;;;;;9.10;99.90;;;;;;5054545;28;20326;-70
2022/10/25 01:55:31;;;;;;;;;;;9.10;99.90;;;;;;5055114;28;19928;-70
2022/10/25 01:58:08;;;;;;;;;;;9.10;99.90;;;;;;5054778;28;19913;-70
2022/10/25 02:00:38;;;;;;;;;;;9.10;99.90;;;;;;5054486;28;19909;-71
2022/10/25 02:03:11;;;;;;;;;;;9.00;99.90;;;;;;5054335;28;19913;-70
2022/10/25 02:05:52;;;;;;;;;;;8.90;99.90;;;;;;5054989;28;19917;-70
2022/10/25 02:08:18;;;;;;;;;;;8.90;99.90;;;;;;5054676;28;20321;-70
2022/10/25 02:10:55;;;;;;;;;;;8.80;99.90;;;;;;5054305;28;19959;-70
2022/10/25 02:13:27;;;;;;;;;;;8.80;99.90;;;;;;4988485;28;1892366;-70
2022/10/25 02:16:08;;;;;;;;;;;8.70;99.90;;;;;;5037088;28;19909;-70
2022/10/25 02:18:34;;;;;;;;;;;8.60;99.90;;;;;;5055221;28;19942;-70
2022/10/25 02:21:01;;;;;;;;;;;8.60;99.90;;;;;;5055464;28;19916;-70
2022/10/25 02:23:27;;;;;;;;;;;8.60;99.90;;;;;;5054941;28;19917;-70
2022/10/25 02:25:53;;;;;;;;;;;8.50;99.90;;;;;;5055591;28;20003;-70
2022/10/25 02:28:20;;;;;;;;;;;8.50;99.90;;;;;;5055033;28;20343;-70
2022/10/25 02:30:46;;;;;;;;;;;8.50;99.90;;;;;;5054700;28;19909;-70
2022/10/25 02:33:12;;;;;;;;;;;8.50;99.90;;;;;;5055215;28;19944;-70
2022/10/25 02:35:38;;;;;;;;;;;8.50;99.90;;;;;;5054908;28;20384;-70
2022/10/25 02:38:03;;;;;;;;;;;8.50;99.90;;;;;;5037242;28;20376;-69
2022/10/25 02:40:29;;;;;;;;;;;8.50;99.90;;;;;;5054732;28;20423;-70
2022/10/25 02:42:54;;;;;;;;;;;8.50;99.90;;;;;;5054517;28;19913;-70
2022/10/25 02:45:20;;;;;;;;;;;8.50;99.90;;;;;;5054416;28;20432;-71
2022/10/25 02:47:45;;;;;;;;;;;8.50;99.90;;;;;;5054966;28;19963;-70
2022/10/25 02:50:11;;;;;;;;;;;8.50;99.90;;;;;;5054620;28;19920;-70
2022/10/25 02:52:37;;;;;;;;;;;8.50;99.90;;;;;;5054457;28;19913;-70
2022/10/25 02:55:02;;;;;;;;;;;8.50;99.90;;;;;;5054536;28;19909;-70
2022/10/25 02:57:35;;;;;;;;;;;8.50;99.90;;;;;;5054721;28;19919;-70
2022/10/25 03:00:00;;;;;;;;;;;8.50;99.90;;;;;;5054686;28;19909;-70
2022/10/25 03:02:26;;;;;;;;;;;8.60;99.90;;;;;;5054014;28;19917;-70
2022/10/25 03:04:52;;;;;;;;;;;8.60;99.90;;;;;;5054277;28;19908;-70
2022/10/25 03:07:17;;;;;;;;;;;8.60;99.90;;;;;;5036827;28;20019;-70
2022/10/25 03:09:43;;;;;;;;;;;8.60;99.90;;;;;;5054056;28;19952;-70
2022/10/25 03:12:08;;;;;;;;;;;8.60;99.90;;;;;;5054130;28;19959;-70
2022/10/25 03:14:34;;;;;;;;;;;8.60;99.90;;;;;;5054130;28;19913;-71
2022/10/25 03:16:59;;;;;;;;;;;8.60;99.90;;;;;;5053849;28;19936;-70
2022/10/25 03:19:25;;;;;;;;;;;8.50;99.90;;;;;;5054046;28;19920;-70
2022/10/25 03:21:50;;;;;;;;;;;8.60;99.90;;;;;;5054128;28;19912;-70
2022/10/25 03:24:16;;;;;;;;;;;8.50;99.90;;;;;;5054583;28;19920;-70
2022/10/25 03:26:42;;;;;;;;;;;8.50;99.90;;;;;;5054314;28;20328;-70
2022/10/25 03:29:07;;;;;;;;;;;8.50;99.90;;;;;;5053931;28;20444;-70
2022/10/25 03:31:33;;;;;;;;;;;8.50;99.90;;;;;;5053618;28;19920;-70
2022/10/25 03:33:58;;;;;;;;;;;8.50;99.90;;;;;;5054129;28;19913;-70
2022/10/25 03:36:24;;;;;;;;;;;8.40;99.90;;;;;;5054062;28;19952;-70
2022/10/25 03:38:49;;;;;;;;;;;8.40;99.90;;;;;;5053769;28;19913;-70
2022/10/25 03:41:15;;;;;;;;;;;8.40;99.90;;;;;;5036003;28;19928;-70
2022/10/25 03:43:40;;;;;;;;;;;8.40;99.90;;;;;;5053513;28;19917;-70
2022/10/25 03:46:06;;;;;;;;;;;8.40;99.90;;;;;;5053467;28;19913;-70
2022/10/25 03:48:31;;;;;;;;;;;8.40;99.90;;;;;;5035816;28;19931;-70
2022/10/25 03:50:57;;;;;;;;;;;8.40;99.90;;;;;;5054131;28;20403;-70
2022/10/25 03:53:23;;;;;;;;;;;8.40;99.90;;;;;;5053482;28;19920;-70
2022/10/25 03:55:48;;;;;;;;;;;8.40;99.90;;;;;;5054064;28;19908;-70
2022/10/25 03:58:14;;;;;;;;;;;8.30;99.90;;;;;;5054053;28;19920;-70
2022/10/25 04:00:40;;;;;;;;;;;8.40;99.90;;;;;;5053523;28;19965;-70
2022/10/25 04:03:05;;;;;;;;;;;8.40;99.90;;;;;;5054079;28;19923;-69
2022/10/25 04:05:31;;;;;;;;;;;8.40;99.90;;;;;;5053684;28;20007;-70
2022/10/25 04:07:57;;;;;;;;;;;8.40;99.90;;;;;;5053440;28;19917;-69
2022/10/25 04:10:22;;;;;;;;;;;8.40;99.90;;;;;;5053373;28;19924;-70
2022/10/25 04:12:48;;;;;;;;;;;8.40;99.90;;;;;;5053671;28;19921;-70
2022/10/25 04:15:13;;;;;;;;;;;8.40;99.90;;;;;;5053368;28;19913;-71
2022/10/25 04:17:39;;;;;;;;;;;8.30;99.90;;;;;;5053352;28;19909;-70
2022/10/25 04:20:05;;;;;;;;;;;8.30;99.90;;;;;;5053377;28;20298;-71
2022/10/25 04:22:30;;;;;;;;;;;8.30;99.90;;;;;;5057252;28;20395;-70
2022/10/25 04:24:56;;;;;;;;;;;8.30;99.90;;;;;;5057393;28;19908;-70
2022/10/25 04:27:21;;;;;;;;;;;8.40;99.90;;;;;;5057292;28;20047;-70
2022/10/25 04:29:47;;;;;;;;;;;8.40;99.90;;;;;;5057533;28;19924;-70
2022/10/25 04:32:12;;;;;;;;;;;8.40;99.90;;;;;;5056943;28;19909;-70
2022/10/25 04:34:38;;;;;;;;;;;8.40;99.90;;;;;;5057474;28;20086;-70
2022/10/25 04:37:04;;;;;;;;;;;8.40;99.90;;;;;;5057126;28;19956;-70
2022/10/25 04:39:29;;;;;;;;;;;8.40;99.90;;;;;;5057128;28;20003;-71
2022/10/25 04:41:55;;;;;;;;;;;8.40;99.90;;;;;;5057039;28;19939;-70
2022/10/25 04:44:20;;;;;;;;;;;8.40;99.90;;;;;;5056884;28;19908;-70
2022/10/25 04:46:46;;;;;;;;;;;8.40;99.90;;;;;;5056928;28;19919;-70
2022/10/25 04:49:12;;;;;;;;;;;8.40;99.90;;;;;;5056844;28;20004;-70
2022/10/25 04:51:38;;;;;;;;;;;8.40;99.90;;;;;;5056751;28;19963;-70
2022/10/25 04:54:03;;;;;;;;;;;8.40;99.90;;;;;;5056986;28;19913;-70
2022/10/25 04:56:29;;;;;;;;;;;8.40;99.90;;;;;;5056635;28;19919;-70
2022/10/25 04:58:55;;;;;;;;;;;8.40;99.90;;;;;;5056754;28;20316;-69
2022/10/25 05:01:20;;;;;;;;;;;8.40;99.90;;;;;;5056472;28;19908;-70
2022/10/25 05:03:46;;;;;;;;;;;8.40;99.90;;;;;;5056498;28;19944;-70
2022/10/25 05:06:13;;;;;;;;;;;8.40;99.90;;;;;;5056541;28;19913;-70
2022/10/25 05:08:40;;;;;;;;;;;8.40;99.90;;;;;;5056547;28;19909;-70
2022/10/25 05:11:06;;;;;;;;;;;8.50;99.90;;;;;;5056447;28;19916;-70
2022/10/25 05:13:35;;;;;;;;;;;8.50;99.90;;;;;;5056247;28;19917;-69
2022/10/25 05:16:01;;;;;;;;;;;8.50;99.90;;;;;;5056218;28;20323;-70
2022/10/25 05:18:27;;;;;;;;;;;8.50;99.90;;;;;;5056407;28;19909;-70
2022/10/25 05:20:53;;;;;;;;;;;8.50;99.90;;;;;;5056667;28;19962;-70
2022/10/25 05:23:19;;;;;;;;;;;8.50;99.90;;;;;;5056148;28;20431;-70
2022/10/25 05:25:44;;;;;;;;;;;8.40;99.90;;;;;;5056394;28;19959;-70
2022/10/25 05:28:10;;;;;;;;;;;8.40;99.90;;;;;;5056693;28;19913;-70
2022/10/25 05:30:39;;;;;;;;;;;8.40;99.90;;;;;;5056126;28;19959;-70
2022/10/25 05:33:04;;;;;;;;;;;8.40;99.90;;;;;;5037802;28;20356;-70
2022/10/25 05:35:30;;;;;;;;;;;8.40;99.90;;;;;;5056324;28;19938;-70
2022/10/25 05:37:55;;;;;;;;;;;8.40;99.90;;;;;;5038239;28;19913;-70
2022/10/25 05:40:21;;;;;;;;;;;8.30;99.90;;;;;;5056213;28;20023;-70
2022/10/25 05:42:46;;;;;;;;;;;8.30;99.90;;;;;;5055687;28;20087;-70
2022/10/25 05:45:12;;;;;;;;;;;8.30;99.90;;;;;;5056113;28;19979;-70
2022/10/25 05:47:37;;;;;;;;;;;8.40;99.90;;;;;;5055592;28;19917;-70
2022/10/25 05:50:03;;;;;;;;;;;8.40;99.90;;;;;;5056071;28;19913;-70
2022/10/25 05:52:28;;;;;;;;;;;8.40;99.90;;;;;;5055900;28;19919;-70
2022/10/25 05:54:54;;;;;;;;;;;8.40;99.90;;;;;;5055707;28;19920;-69
2022/10/25 05:57:19;;;;;;;;;;;8.40;99.90;;;;;;5055699;28;19913;-70
2022/10/25 05:59:45;;;;;;;;;;;8.50;99.90;;;;;;5037711;28;20007;-69
2022/10/25 06:02:11;;;;;;;;;;;8.50;99.90;;;;;;5037334;28;19959;-70
2022/10/25 06:04:36;;;;;;;;;;;8.50;99.90;;;;;;5055808;28;19913;-70
2022/10/25 06:07:02;;;;;;;;;;;8.50;99.90;;;;;;5055649;28;19948;-69
2022/10/25 06:09:27;;;;;;;;;;;8.50;99.90;;;;;;5037498;28;20270;-69
2022/10/25 06:11:53;;;;;;;;;;;8.60;99.90;;;;;;5055392;28;19928;-70
2022/10/25 06:14:18;;;;;;;;;;;8.60;99.90;;;;;;5055613;28;20326;-70
2022/10/25 06:16:44;;;;;;;;;;;8.60;99.90;;;;;;5055081;28;19917;-69
2022/10/25 06:19:09;;;;;;;;;;;8.60;99.90;;;;;;5055161;28;19909;-70
2022/10/25 06:21:35;;;;;;;;;;;8.60;99.90;;;;;;5037312;28;19917;-69
2022/10/25 06:24:01;;;;;;;;;;;8.60;99.90;;;;;;5055847;28;19962;-69
2022/10/25 06:26:27;;;;;;;;;;;8.60;99.90;;;;;;5055373;28;19909;-70
2022/10/25 06:28:54;;;;;;;;;;;8.60;99.90;;;;;;5037096;28;20381;-70
2022/10/25 06:31:20;;;;;;;;;;;8.60;99.90;;;;;;5055032;28;19967;-70
2022/10/25 06:33:46;;;;;;;;;;;8.60;99.90;;;;;;5054907;28;19909;-70
2022/10/25 06:36:15;;;;;;;;;;;8.70;99.90;;;;;;5055197;28;19908;-70
2022/10/25 06:38:40;;;;;;;;;;;8.70;99.90;;;;;;5054779;28;19916;-70
2022/10/25 06:41:08;;;;;;;;;;;8.70;99.90;;;;;;5055094;28;19913;-70
2022/10/25 06:43:34;;;;;;;;;;;8.70;99.90;;;;;;5053732;28;19913;-70
2022/10/25 06:46:18;;;;;;;;;;;8.80;99.90;;;;;;5054762;28;19959;-69
2022/10/25 06:48:43;;;;;;;;;;;8.80;99.90;;;;;;5054964;28;19909;-70
2022/10/25 06:51:09;;;;;;;;;;;8.80;99.90;;;;;;5054611;28;19913;-70
2022/10/25 06:53:35;;;;;;;;;;;8.90;99.90;;;;;;5054538;28;19916;-70
2022/10/25 06:56:01;;;;;;;;;;;8.90;99.90;;;;;;5036608;28;19952;-70
2022/10/25 06:58:30;;;;;;;;;;;8.90;99.90;;;;;;5054687;28;20018;-70
2022/10/25 07:01:15;;;;;;;;;;;8.90;99.90;;;;;;5054488;28;20292;-70
2022/10/25 07:03:41;;;;;;;;;;;9.00;99.90;;;;;;5054249;28;19913;-70
2022/10/25 07:06:08;;;;;;;;;;;9.00;99.90;;;;;;5054371;28;20389;-70
2022/10/25 07:08:34;;;;;;;;;;;9.00;99.90;;;;;;5054165;28;19916;-69
2022/10/25 07:11:00;;;;;;;;;;;9.00;99.90;;;;;;5054213;28;19948;-69
2022/10/25 07:13:25;;;;;;;;;;;9.10;99.90;;;;;;5053891;28;19964;-69
2022/10/25 07:15:51;;;;;;;;;;;9.10;99.90;;;;;;5054202;28;19916;-70
2022/10/25 07:18:17;;;;;;;;;;;9.20;99.90;;;;;;5053840;28;19916;-69
2022/10/25 07:20:47;;;;;;;;;;;9.20;99.90;;;;;;5054025;28;20261;-69
2022/10/25 07:23:14;;;;;;;;;;;9.30;99.90;;;;;;5053883;28;19917;-69
2022/10/25 07:25:39;;;;;;;;;;;9.30;99.90;;;;;;5036062;28;19916;-70
2022/10/25 07:28:05;;;;;;;;;;;9.30;99.90;;;;;;5053992;28;19913;-69
2022/10/25 07:30:31;;;;;;;;;;;9.30;99.90;;;;;;5053903;28;20304;-69
2022/10/25 07:32:56;;;;;;;;;;;9.30;99.90;;;;;;5053694;28;20265;-69
2022/10/25 07:35:22;;;;;;;;;;;9.40;99.90;;;;;;5054362;28;19971;-69
2022/10/25 07:37:47;;;;;;;;;;;9.40;99.90;;;;;;5053871;28;19917;-70
2022/10/25 07:40:13;;;;;;;;;;;9.40;99.90;;;;;;5053820;28;19935;-69
2022/10/25 07:42:38;;;;;;;;;;;9.40;99.90;;;;;;5053563;28;19920;-69
2022/10/25 07:45:04;;;;;;;;;;;9.40;99.90;;;;;;5053743;28;19917;-69
2022/10/25 07:47:30;;;;;;;;;;;9.50;99.90;;;;;;5053385;28;20291;-70
2022/10/25 07:49:56;;;;;;;;;;;9.50;99.90;;;;;;5053881;28;19915;-69
2022/10/25 07:52:22;;;;;;;;;;;9.50;99.90;;;;;;5035851;28;19947;-69
2022/10/25 07:54:47;;;;;;;;;;;9.50;99.90;;;;;;5053465;28;19913;-69
2022/10/25 07:57:13;;;;;;;;;;;9.50;99.90;;;;;;5053552;28;19915;-69
2022/10/25 07:59:38;;;;;;;;;;;9.60;99.90;;;;;;5053558;28;20288;-70
2022/10/25 08:02:04;;;;;;;;;;;9.70;99.90;;;;;;5053434;28;20004;-70
2022/10/25 08:04:31;;;;;;;;;;;9.70;99.90;;;;;;5053982;28;19920;-69
2022/10/25 08:07:00;;;;;;;;;;;9.80;99.90;;;;;;5053749;28;20346;-69
2022/10/25 08:09:26;;;;;;;;;;;9.80;99.90;;;;;;5053414;28;19916;-69
2022/10/25 08:11:52;;;;;;;;;;;9.90;99.90;;;;;;5053361;28;20383;-70
2022/10/25 08:14:17;;;;;;;;;;;10.00;99.90;;;;;;5035526;28;19994;-69
2022/10/25 08:16:43;;;;;;;;;;;10.00;99.90;;;;;;5053102;28;20288;-70
2022/10/25 08:19:08;;;;;;;;;;;10.00;99.90;;;;;;5035530;28;20315;-69
2022/10/25 08:21:34;;;;;;;;;;;10.10;99.90;;;;;;5053228;28;20428;-69
2022/10/25 08:23:59;;;;;;;;;;;10.20;99.90;;;;;;5035357;28;19959;-69
2022/10/25 08:26:25;;;;;;;;;;;10.20;99.90;;;;;;5053259;28;20423;-70
2022/10/25 08:28:50;;;;;;;;;;;10.30;99.90;;;;;;5053764;28;19913;-69
2022/10/25 08:31:16;;;;;;;;;;;10.30;99.90;;;;;;5053539;28;19935;-69
2022/10/25 08:33:41;;;;;;;;;;;10.30;99.90;;;;;;5053558;28;19943;-69
2022/10/25 08:36:07;;;;;;;;;;;10.40;99.90;;;;;;5053187;28;19913;-69
2022/10/25 08:38:33;;;;;;;;;;;10.40;99.90;;;;;;5053483;28;19952;-69
2022/10/25 08:40:58;;;;;;;;;;;10.50;99.90;;;;;;5053155;28;20270;-69
2022/10/25 08:43:33;;;;;;;;;;;10.50;99.90;;;;;;5052890;28;19920;-69
2022/10/25 08:46:01;;;;;;;;;;;10.50;99.90;;;;;;5053392;28;20357;-69
2022/10/25 08:48:33;;;;;;;;;;;10.60;99.90;;;;;;5052870;28;19916;-69
2022/10/25 08:51:01;;;;;;;;;;;10.60;99.90;;;;;;5053316;28;19908;-69
2022/10/25 08:53:30;;;;;;;;;;;10.70;99.90;;;;;;5053258;28;19956;-69
2022/10/25 08:55:56;;;;;;;;;;;10.70;99.90;;;;;;5053242;28;19909;-69
2022/10/25 08:58:27;;;;;;;;;;;10.70;99.90;;;;;;5052929;28;20386;-69
2022/10/25 09:00:52;;;;;;;;;;;10.80;99.90;;;;;;5052898;28;19935;-69
2022/10/25 09:03:24;;;;;;;;;;;10.80;99.90;;;;;;5052567;28;19921;-69
2022/10/25 09:05:49;;;;;;;;;;;10.90;99.90;;;;;;5053186;28;19962;-69
2022/10/25 09:08:18;;;;;;;;;;;10.90;99.90;;;;;;5056507;28;19909;-69
2022/10/25 09:10:49;;;;;;;;;;;11.00;99.90;;;;;;5056515;28;20360;-69
2022/10/25 09:13:33;;;;;;;;;;;11.00;99.90;;;;;;5056222;28;19965;-69
2022/10/25 09:16:18;;;;;;;;;;;11.10;99.90;;;;;;5038488;28;19909;-69
2022/10/25 09:18:46;;;;;;;;;;;11.20;99.90;;;;;;5056117;28;20020;-69
2022/10/25 09:21:15;;;;;;;;;;;11.20;99.90;;;;;;5056331;28;19909;-69
2022/10/25 09:23:45;;;;;;;;;;;11.30;99.90;;;;;;5056125;28;19935;-69
2022/10/25 09:26:16;;;;;;;;;;;11.30;99.90;;;;;;5056813;28;19951;-69
2022/10/25 09:28:51;;;;;;;;;;;11.30;99.90;;;;;;5056518;28;19909;-69
2022/10/25 09:31:21;;;;;;;;;;;11.30;99.90;;;;;;5056493;28;20254;-69
2022/10/25 09:33:49;;;;;;;;;;;11.30;99.90;;;;;;5055803;28;20335;-69
2022/10/25 09:36:14;;;;;;;;;;;11.40;99.90;;;;;;5056049;28;19909;-69
2022/10/25 09:38:50;;;;;;;;;;;11.50;99.90;;;;;;5055998;28;20283;-69
2022/10/25 09:41:21;;;;;;;;;;;11.60;99.90;;;;;;5056560;28;19908;-69
2022/10/25 09:43:54;;;;;;;;;;;11.60;99.90;;;;;;5055776;28;19920;-69
2022/10/25 09:46:26;;;;;;;;;;;11.80;99.90;;;;;;5055856;28;19958;-69
2022/10/25 09:48:51;;;;;;;;;;;11.80;99.90;;;;;;5055651;28;19934;-69
2022/10/25 09:51:21;;;;;;;;;;;12.00;99.90;;;;;;5055769;28;19909;-69
2022/10/25 09:53:47;;;;;;;;;;;12.10;99.90;;;;;;5055644;28;20009;-69
2022/10/25 09:56:13;;;;;;;;;;;12.10;99.90;;;;;;5055715;28;19912;-69
2022/10/25 09:58:40;;;;;;;;;;;12.20;99.90;;;;;;5056014;28;19912;-69
2022/10/25 10:01:24;;;;;;;;;;;12.20;99.90;;;;;;5055594;28;19936;-69
2022/10/25 10:03:50;;;;;;;;;;;12.30;99.90;;;;;;5055172;28;19912;-69
2022/10/25 10:06:21;;;;;;;;;;;12.40;99.90;;;;;;5055548;28;19931;-69
2022/10/25 10:08:51;;;;;;;;;;;12.50;99.90;;;;;;5055423;28;20027;-69
2022/10/25 10:11:18;;;;;;;;;;;12.50;99.90;;;;;;5055593;28;19909;-69
2022/10/25 10:13:49;;;;;;;;;;;12.60;99.90;;;;;;5055749;28;19928;-71
2022/10/25 10:16:15;;;;;;;;;;;12.70;99.90;;;;;;5055642;28;19909;-71
2022/10/25 10:18:42;;;;;;;;;;;12.70;99.90;;;;;;5036063;28;19909;-71
2022/10/25 10:21:10;;;;;;;;;;;12.70;99.90;;;;;;5055249;28;19916;-72
2022/10/25 10:23:36;;;;;;;;;;;12.80;99.90;;;;;;5055145;28;19913;-71
2022/10/25 10:26:08;;;;;;;;;;;12.90;99.90;;;;;;5055466;28;19931;-71
2022/10/25 10:28:34;;;;;;;;;;;13.00;99.90;;;;;;5037270;28;19916;-71
2022/10/25 10:31:01;;;;;;;;;;;13.00;99.90;;;;;;5055051;28;19913;-72
2022/10/25 10:33:29;;;;;;;;;;;13.10;99.90;;;;;;5036829;28;19909;-71
2022/10/25 10:35:54;;;;;;;;;;;13.20;99.90;;;;;;5054975;28;19908;-71
2022/10/25 10:38:25;;;;;;;;;;;13.30;99.90;;;;;;5054948;28;19978;-71
2022/10/25 10:40:52;;;;;;;;;;;13.40;99.90;;;;;;5054866;28;19948;-71
2022/10/25 10:43:22;;;;;;;;;;;13.40;99.90;;;;;;5054655;28;19960;-71
2022/10/25 10:45:48;;;;;;;;;;;13.50;99.90;;;;;;5054747;28;19908;-71
2022/10/25 10:48:21;;;;;;;;;;;13.60;99.90;;;;;;5054473;28;20380;-70
2022/10/25 10:50:48;;;;;;;;;;;13.60;99.90;;;;;;5054996;28;20257;-71
2022/10/25 10:53:19;;;;;;;;;;;13.70;99.90;;;;;;5054592;28;19944;-71
2022/10/25 10:55:46;;;;;;;;;;;13.80;99.90;;;;;;5054660;28;19915;-71
2022/10/25 10:58:16;;;;;;;;;;;13.80;99.90;;;;;;5054508;28;19909;-71
2022/10/25 11:00:57;;;;;;;;;;;13.90;99.90;;;;;;5054469;28;19948;-71
2022/10/25 11:03:40;;;;;;;;;;;13.90;99.90;;;;;;5054037;28;20356;-71
2022/10/25 11:06:16;;;;;;;;;;;14.10;99.90;;;;;;5054963;28;19956;-71
2022/10/25 11:08:43;;;;;;;;;;;14.10;99.90;;;;;;5054373;28;19909;-71
2022/10/25 11:11:11;;;;;;;;;;;14.10;99.90;;;;;;5054618;28;19920;-71
2022/10/25 11:13:37;;;;;;;;;;;14.20;99.90;;;;;;5054080;28;19923;-71
2022/10/25 11:16:11;;;;;;;;;;;14.30;99.90;;;;;;5054304;28;19913;-71
2022/10/25 11:18:54;;;;;;;;;;;14.40;99.90;;;;;;5053997;28;19915;-71
2022/10/25 11:21:25;;;;;;;;;;;14.50;99.90;;;;;;5054478;28;19909;-71
2022/10/25 11:23:51;;;;;;;;;;;14.50;99.90;;;;;;5054213;28;19913;-71
2022/10/25 11:26:31;;;;;;;;;;;14.60;99.90;;;;;;5054646;28;20357;-72
2022/10/25 11:29:12;;;;;;;;;;;14.60;99.90;;;;;;5053742;28;19909;-72
2022/10/25 11:31:38;;;;;;;;;;;14.70;99.90;;;;;;5054230;28;19970;-71
2022/10/25 11:34:12;;;;;;;;;;;14.80;99.90;;;;;;5053788;28;20371;-71
2022/10/25 11:36:47;;;;;;;;;;;14.90;99.90;;;;;;5036319;28;20000;-71
2022/10/25 11:39:27;;;;;;;;;;;14.90;99.90;;;;;;5054118;28;19909;-72
2022/10/25 11:41:57;;;;;;;;;;;15.00;99.90;;;;;;5053843;28;19908;-71
2022/10/25 11:44:22;;;;;;;;;;;15.10;99.90;;;;;;5053697;28;19923;-72
2022/10/25 11:47:06;;;;;;;;;;;15.20;99.90;;;;;;5053793;28;19913;-71
2022/10/25 11:49:50;;;;;;;;;;;15.30;99.90;;;;;;5053846;28;19909;-72
2022/10/25 11:52:31;;;;;;;;;;;15.30;99.90;;;;;;5054041;28;19909;-71
2022/10/25 11:55:02;;;;;;;;;;;15.40;99.90;;;;;;5053848;28;20000;-72
2022/10/25 11:57:28;;;;;;;;;;;15.50;99.90;;;;;;5053713;28;19913;-72
2022/10/25 12:00:12;;;;;;;;;;;15.50;99.90;;;;;;5036000;28;19913;-72
2022/10/25 12:03:00;;;;;;;;;;;15.50;99.90;;;;;;5053415;28;20003;-72
2022/10/25 12:05:49;;;;;;;;;;;15.70;99.90;;;;;;5053671;28;19940;-72
2022/10/25 12:08:20;;;;;;;;;;;15.70;99.90;;;;;;5017165;28;19952;-71
2022/10/25 12:10:48;;;;;;;;;;;15.80;99.90;;;;;;5053769;28;19912;-72
2022/10/25 12:13:19;;;;;;;;;;;15.90;99.90;;;;;;5053478;28;19981;-72
2022/10/25 12:15:47;;;;;;;;;;;16.10;99.90;;;;;;5053531;28;20395;-72
2022/10/25 12:18:20;;;;;;;;;;;16.20;99.90;;;;;;5053191;28;19909;-71
2022/10/25 12:20:48;;;;;;;;;;;16.30;99.90;;;;;;5053533;28;19908;-72
2022/10/25 12:23:17;;;;;;;;;;;16.40;99.90;;;;;;5035527;28;19979;-71
2022/10/25 12:25:46;;;;;;;;;;;16.50;99.90;;;;;;5053883;28;20292;-72
2022/10/25 12:28:23;;;;;;;;;;;16.50;99.90;;;;;;5053942;28;20319;-72
2022/10/25 12:30:51;;;;;;;;;;;16.60;99.90;;;;;;5053854;28;20376;-72
2022/10/25 12:33:37;;;;;;;;;;;16.80;99.90;;;;;;5053583;28;19908;-71
2022/10/25 12:36:05;;;;;;;;;;;16.90;99.90;;;;;;5042411;28;19963;-71
2022/10/25 12:38:35;;;;;;;;;;;17.00;99.90;;;;;;5053528;28;19909;-72
2022/10/25 12:41:03;;;;;;;;;;;17.00;99.90;;;;;;5052136;28;19917;-71
2022/10/25 12:43:43;;;;;;;;;;;17.10;99.90;;;;;;5056815;28;20007;-71
2022/10/25 12:46:28;;;;;;;;;;;17.20;99.90;;;;;;5057208;28;19920;-71
2022/10/25 12:48:57;;;;;;;;;;;17.30;99.90;;;;;;5030311;28;19913;-70
2022/10/25 12:51:39;;;;;;;;;;;17.30;99.90;;;;;;5056278;28;20292;-71
2022/10/25 12:54:08;;;;;;;;;;;17.40;99.90;;;;;;5056510;28;19913;-71
2022/10/25 12:56:52;;;;;;;;;;;17.50;99.90;;;;;;5056219;28;19913;-71
2022/10/25 12:59:37;;;;;;;;;;;17.50;99.90;;;;;;5056117;28;19913;-70
2022/10/25 13:02:21;;;;;;;;;;;17.60;99.90;;;;;;5054746;28;20034;-71
2022/10/25 13:04:46;;;;;;;;;;;17.70;99.90;;;;;;5055279;28;20035;-71
2022/10/25 13:07:13;;;;;;;;;;;17.80;99.90;;;;;;5055603;28;20019;-71
2022/10/25 13:09:39;;;;;;;;;;;17.90;99.90;;;;;;5056221;28;19920;-71
2022/10/25 13:12:29;;;;;;;;;;;17.90;99.90;;;;;;5055681;28;19917;-71
2022/10/25 13:14:57;;;;;;;;;;;17.90;99.90;;;;;;5054055;28;19913;-73
2022/10/25 13:17:22;;;;;;;;;;;18.00;99.90;;;;;;5058795;28;20313;-73
2022/10/25 13:19:51;;;;;;;;;;;18.00;99.90;;;;;;5058187;28;20008;-72
2022/10/25 13:22:26;;;;;;;;;;;18.00;99.90;;;;;;5056389;28;20011;-70
2022/10/25 13:24:53;;;;;;;;;;;18.10;99.90;;;;;;5056661;28;19908;-72
2022/10/25 13:27:23;;;;;;;;;;;18.20;99.90;;;;;;5057298;28;19920;-72
2022/10/25 13:29:49;;;;;;;;;;;18.30;99.90;;;;;;5057069;28;20281;-72
2022/10/25 13:32:17;;;;;;;;;;;18.30;99.90;;;;;;5056686;28;19909;-71
2022/10/25 13:34:43;;;;;;;;;;;18.30;99.90;;;;;;5056789;28;19916;-72
2022/10/25 13:37:41;;;;;;;;;;;18.40;99.90;;;;;;5056424;28;19909;-72
2022/10/25 13:40:17;;;;;;;;;;;18.30;99.90;;;;;;5012511;28;19909;-72
2022/10/25 13:42:45;;;;;;;;;;;18.30;99.90;;;;;;5056147;28;19932;-72
2022/10/25 13:45:31;;;;;;;;;;;18.30;99.90;;;;;;5056262;28;19909;-72
2022/10/25 13:48:05;;;;;;;;;;;18.30;99.90;;;;;;5055295;28;19999;-70
2022/10/25 13:50:39;;;;;;;;;;;18.30;99.90;;;;;;5055332;28;19920;-71
2022/10/25 13:53:19;;;;;;;;;;;18.30;99.90;;;;;;5055736;28;19916;-71
2022/10/25 13:55:58;;;;;;;;;;;18.30;99.90;;;;;;5038218;28;19919;-71
2022/10/25 13:58:27;;;;;;;;;;;18.20;99.90;;;;;;5055578;28;20016;-71
2022/10/25 14:00:52;;;;;;;;;;;18.10;99.90;;;;;;5055823;28;19908;-71
2022/10/25 14:03:18;;;;;;;;;;;18.10;99.90;;;;;;5055481;28;19974;-71
2022/10/25 14:05:56;;;;;;;;;;;18.10;99.90;;;;;;5055806;28;20038;-71
2022/10/25 14:08:24;;;;;;;;;;;18.10;99.90;;;;;;5055442;28;19962;-71
2022/10/25 14:10:49;;;;;;;;;;;18.10;99.90;;;;;;5055095;28;19913;-72
2022/10/25 14:13:23;;;;;;;;;;;18.10;99.90;;;;;;5054856;28;20071;-72
2022/10/25 14:15:55;;;;;;;;;;;18.00;99.90;;;;;;5054958;28;20054;-72
2022/10/25 14:18:21;;;;;;;;;;;17.90;99.90;;;;;;5054858;28;19913;-72
2022/10/25 14:20:49;;;;;;;;;;;17.90;99.90;;;;;;5055951;28;19913;-72
2022/10/25 14:23:19;;;;;;;;;;;17.80;99.90;;;;;;5055341;28;19913;-72
2022/10/25 14:26:08;;;;;;;;;;;17.70;99.90;;;;;;5055222;28;19909;-72
2022/10/25 14:28:34;;;;;;;;;;;17.70;99.90;;;;;;5055348;28;19909;-72
2022/10/25 14:31:01;;;;;;;;;;;17.50;99.90;;;;;;5054822;28;19920;-71
2022/10/25 14:33:32;;;;;;;;;;;17.50;99.90;;;;;;5053417;28;19916;-72